Time;durP1;ratioP1;P1;durP2;ratioP2;P2;SDS_P1;SDS_P2;PMS_P1;PMS_P2;Temp;Humidity;BMP_temperature;BMP_pressure;BME280_temperature;BME280_humidity;BME280_pressure;Samples;Min_cycle;Max_cycle;Signal;HPM_P1;HPM_P2
2022/02/20 00:01:28;;;;;;;7.20;5.20;;;;;;;;;;6166453;23;20020;-73
2022/02/20 00:03:54;;;;;;;5.53;5.13;;;;;;;;;;6216496;23;20504;-73
2022/02/20 00:06:20;;;;;;;4.32;4.03;;;;;;;;;;6191371;23;20016;-73
2022/02/20 00:08:45;;;;;;;4.97;4.57;;;;;;;;;;6242662;23;20012;-73
2022/02/20 00:11:11;;;;;;;5.78;4.22;;;;;;;;;;6215515;23;20016;-73
2022/02/20 00:13:37;;;;;;;5.55;5.07;;;;;;;;;;6191544;23;20505;-72
2022/02/20 00:16:03;;;;;;;3.95;3.65;;;;;;;;;;6242575;23;20150;-73
2022/02/20 00:18:29;;;;;;;6.97;4.82;;;;;;;;;;6216194;23;20338;-73
2022/02/20 00:20:55;;;;;;;5.40;4.38;;;;;;;;;;6242616;23;20349;-73
2022/02/20 00:23:21;;;;;;;4.60;3.50;;;;;;;;;;6243191;23;20008;-73
2022/02/20 00:25:48;;;;;;;4.18;3.88;;;;;;;;;;6241995;23;20012;-72
2022/02/20 00:28:14;;;;;;;4.32;3.22;;;;;;;;;;6242650;23;20452;-73
2022/02/20 00:30:41;;;;;;;6.20;4.97;;;;;;;;;;6215785;23;20035;-73
2022/02/20 00:33:07;;;;;;;4.32;4.03;;;;;;;;;;6215981;23;20008;-73
2022/02/20 00:35:33;;;;;;;4.60;4.07;;;;;;;;;;6216324;23;20018;-72
2022/02/20 00:37:59;;;;;;;3.42;3.22;;;;;;;;;;6242479;23;20475;-75
2022/02/20 00:40:25;;;;;;;4.22;3.80;;;;;;;;;;6191352;23;20091;-73
2022/02/20 00:42:51;;;;;;;3.83;3.53;;;;;;;;;;6166134;23;20044;-73
2022/02/20 00:45:17;;;;;;;3.75;3.45;;;;;;;;;;6242497;23;20015;-72
2022/02/20 00:47:43;;;;;;;4.55;3.67;;;;;;;;;;6242660;23;20091;-72
2022/02/20 00:50:09;;;;;;;4.65;4.18;;;;;;;;;;6215593;23;20028;-72
2022/02/20 00:52:35;;;;;;;5.00;4.53;;;;;;;;;;6215830;23;20020;-72
2022/02/20 00:55:01;;;;;;;2.65;2.50;;;;;;;;;;6216038;23;20111;-72
2022/02/20 00:57:27;;;;;;;2.20;2.03;;;;;;;;;;6216342;23;20039;-73
2022/02/20 00:59:54;;;;;;;3.92;3.63;;;;;;;;;;6216384;23;20086;-73
2022/02/20 01:02:20;;;;;;;3.63;2.63;;;;;;;;;;6190377;23;20016;-71
2022/02/20 01:04:50;;;;;;;3.95;3.65;;;;;;;;;;6215651;23;20023;-71
2022/02/20 01:07:22;;;;;;;3.70;3.40;;;;;;;;;;6241896;23;20012;-71
2022/02/20 01:09:48;;;;;;;3.83;3.53;;;;;;;;;;6242800;23;20020;-73
2022/02/20 01:12:14;;;;;;;4.50;4.10;;;;;;;;;;6165477;23;20361;-73
2022/02/20 01:14:39;;;;;;;4.70;4.28;;;;;;;;;;6191067;23;20023;-72
2022/02/20 01:17:06;;;;;;;3.30;3.10;;;;;;;;;;6242684;23;20016;-73
2022/02/20 01:19:32;;;;;;;3.25;3.00;;;;;;;;;;6216407;23;20012;-73
2022/02/20 01:21:58;;;;;;;4.05;3.53;;;;;;;;;;6216422;23;20449;-71
2022/02/20 01:24:23;;;;;;;3.60;3.30;;;;;;;;;;6190562;23;20016;-71
2022/02/20 01:26:49;;;;;;;4.85;4.00;;;;;;;;;;6190182;23;20008;-71
2022/02/20 01:29:15;;;;;;;4.28;3.40;;;;;;;;;;6214933;23;20107;-72
2022/02/20 01:31:41;;;;;;;2.47;2.33;;;;;;;;;;6242186;23;20008;-71
2022/02/20 01:34:07;;;;;;;4.88;4.43;;;;;;;;;;6214899;23;20019;-73
2022/02/20 01:36:33;;;;;;;3.72;3.42;;;;;;;;;;6190120;23;20015;-73
2022/02/20 01:39:01;;;;;;;3.65;3.35;;;;;;;;;;6215294;23;20044;-74
2022/02/20 01:41:27;;;;;;;3.25;2.63;;;;;;;;;;6242394;23;20016;-72
2022/02/20 01:43:53;;;;;;;2.10;2.00;;;;;;;;;;6190151;23;20036;-74
2022/02/20 01:46:21;;;;;;;4.03;3.63;;;;;;;;;;6215213;23;20035;-72
2022/02/20 01:48:48;;;;;;;3.65;3.28;;;;;;;;;;6242181;23;20456;-74
2022/02/20 01:51:16;;;;;;;5.20;4.80;;;;;;;;;;6214965;23;20503;-73
2022/02/20 01:53:43;;;;;;;3.78;3.55;;;;;;;;;;6215272;23;20012;-73
2022/02/20 01:56:09;;;;;;;4.63;4.10;;;;;;;;;;6189957;23;20024;-73
2022/02/20 01:58:40;;;;;;;2.63;2.45;;;;;;;;;;6242831;23;20019;-73
2022/02/20 02:01:33;;;;;;;4.60;3.92;;;;;;;;;;6162812;23;20054;-73
2022/02/20 02:04:12;;;;;;;2.85;2.67;;;;;;;;;;6193744;23;20058;-73
2022/02/20 02:06:44;;;;;;;4.15;3.30;;;;;;;;;;6242850;23;20008;-73
2022/02/20 02:09:13;;;;;;;4.80;4.47;;;;;;;;;;6215784;23;20793;-72
2022/02/20 02:11:45;;;;;;;5.13;4.70;;;;;;;;;;6242421;23;20016;-73
2022/02/20 02:14:30;;;;;;;4.40;3.92;;;;;;;;;;6194149;23;20012;-72
2022/02/20 02:17:25;;;;;;;3.88;3.58;;;;;;;;;;6221895;23;20023;-73
2022/02/20 02:20:13;;;;;;;3.63;2.80;;;;;;;;;;6190471;23;20016;-73
2022/02/20 02:22:54;;;;;;;2.67;2.47;;;;;;;;;;6242764;23;20065;-72
2022/02/20 02:25:36;;;;;;;2.47;2.30;;;;;;;;;;6215739;23;20611;-72
2022/02/20 02:28:14;;;;;;;2.90;2.72;;;;;;;;;;6193380;23;20016;-72
2022/02/20 02:30:50;;;;;;;2.15;2.05;;;;;;;;;;6167894;23;20027;-73
2022/02/20 02:33:28;;;;;;;2.67;2.35;;;;;;;;;;6217084;23;20008;-72
2022/02/20 02:35:55;;;;;;;2.42;1.95;;;;;;;;;;6217724;23;20371;-74
2022/02/20 02:38:26;;;;;;;2.95;2.40;;;;;;;;;;6217415;23;20015;-73
2022/02/20 02:40:55;;;;;;;2.13;2.00;;;;;;;;;;6194037;23;20022;-74
2022/02/20 02:43:21;;;;;;;3.58;3.28;;;;;;;;;;6167754;23;20399;-74
2022/02/20 02:45:52;;;;;;;;;;;;;;;;;;6218555;23;20012;-74
2022/02/20 02:48:18;;;;;;;2.40;1.65;;;;;;;;;;6192089;23;20057;-73
2022/02/20 02:50:47;;;;;;;1.77;1.67;;;;;;;;;;6217351;23;20040;-74
2022/02/20 02:53:14;;;;;;;3.00;2.20;;;;;;;;;;6216839;23;20453;-75
2022/02/20 02:55:44;;;;;;;1.90;1.80;;;;;;;;;;6191761;23;20020;-73
2022/02/20 02:58:10;;;;;;;2.05;1.95;;;;;;;;;;6217046;23;20072;-74
2022/02/20 03:00:37;;;;;;;2.40;2.30;;;;;;;;;;6217257;23;20019;-73
2022/02/20 03:03:03;;;;;;;1.83;1.73;;;;;;;;;;6191891;23;20412;-72
2022/02/20 03:05:29;;;;;;;2.40;2.20;;;;;;;;;;6166803;23;20016;-73
2022/02/20 03:07:54;;;;;;;2.47;2.38;;;;;;;;;;6191731;23;20023;-73
2022/02/20 03:10:23;;;;;;;2.75;1.75;;;;;;;;;;6216339;23;20440;-74
2022/02/20 03:12:49;;;;;;;1.65;1.65;;;;;;;;;;6216673;23;20008;-75
2022/02/20 03:15:17;;;;;;;1.98;1.83;;;;;;;;;;6216783;23;20074;-75
2022/02/20 03:17:43;;;;;;;2.47;2.05;;;;;;;;;;6216734;23;20012;-73
2022/02/20 03:20:10;;;;;;;2.10;2.00;;;;;;;;;;6191775;23;20069;-74
2022/02/20 03:22:40;;;;;;;2.30;2.20;;;;;;;;;;6216668;23;20095;-72
2022/02/20 03:25:06;;;;;;;2.30;2.10;;;;;;;;;;6243437;23;20035;-73
2022/02/20 03:27:34;;;;;;;2.22;2.10;;;;;;;;;;6191507;23;20459;-73
2022/02/20 03:30:05;;;;;;;2.17;2.00;;;;;;;;;;6167407;23;20024;-73
2022/02/20 03:32:31;;;;;;;2.58;2.40;;;;;;;;;;6242856;23;20012;-73
2022/02/20 03:34:59;;;;;;;2.58;2.45;;;;;;;;;;6216636;23;20095;-73
2022/02/20 03:37:26;;;;;;;2.55;2.20;;;;;;;;;;6216360;23;20012;-72
2022/02/20 03:39:52;;;;;;;2.00;1.90;;;;;;;;;;6191952;23;20016;-74
2022/02/20 03:42:18;;;;;;;2.50;2.40;;;;;;;;;;6216274;23;20150;-73
2022/02/20 03:44:55;;;;;;;2.10;2.00;;;;;;;;;;6216783;23;20573;-74
2022/02/20 03:47:21;;;;;;;2.70;2.50;;;;;;;;;;6216642;23;20019;-73
2022/02/20 03:49:54;;;;;;;3.28;2.05;;;;;;;;;;6216977;23;20026;-73
2022/02/20 03:52:31;;;;;;;1.92;1.90;;;;;;;;;;6217936;23;20352;-74
2022/02/20 03:54:58;;;;;;;2.35;2.15;;;;;;;;;;6218282;23;20044;-73
2022/02/20 03:57:32;;;;;;;2.30;2.20;;;;;;;;;;6218421;23;20483;-74
2022/02/20 04:00:19;;;;;;;1.73;1.70;;;;;;;;;;6245796;23;20103;-74
2022/02/20 04:02:55;;;;;;;2.05;1.90;;;;;;;;;;6196432;23;20020;-73
2022/02/20 04:05:21;;;;;;;2.10;2.00;;;;;;;;;;6245181;23;20042;-73
2022/02/20 04:07:48;;;;;;;2.15;2.05;;;;;;;;;;6193492;23;20059;-74
2022/02/20 04:10:16;;;;;;;4.90;2.67;;;;;;;;;;6168580;23;20027;-74
2022/02/20 04:12:42;;;;;;;2.63;2.42;;;;;;;;;;6244886;23;20008;-74
2022/02/20 04:15:11;;;;;;;3.28;2.78;;;;;;;;;;6192447;23;20016;-74
2022/02/20 04:17:41;;;;;;;3.03;2.58;;;;;;;;;;6217766;23;20012;-74
2022/02/20 04:20:08;;;;;;;3.08;2.78;;;;;;;;;;6218421;23;20004;-72
2022/02/20 04:22:34;;;;;;;2.50;2.30;;;;;;;;;;6216982;23;20008;-73
2022/02/20 04:25:02;;;;;;;3.53;3.20;;;;;;;;;;6203896;23;20334;-77
2022/02/20 04:27:28;;;;;;;2.10;2.00;;;;;;;;;;6209865;23;20461;-72
2022/02/20 04:29:54;;;;;;;2.25;2.10;;;;;;;;;;6213170;23;20047;-72
2022/02/20 04:32:20;;;;;;;2.60;2.40;;;;;;;;;;6237858;23;20058;-72
2022/02/20 04:34:46;;;;;;;2.30;2.10;;;;;;;;;;6212729;23;20012;-71
2022/02/20 04:37:14;;;;;;;2.25;1.85;;;;;;;;;;6211788;23;20404;-72
2022/02/20 04:39:39;;;;;;;3.75;2.35;;;;;;;;;;6213190;23;20011;-72
2022/02/20 04:42:06;;;;;;;1.73;1.63;;;;;;;;;;6212853;23;20008;-71
2022/02/20 04:44:40;;;;;;;4.22;3.83;;;;;;;;;;6211718;23;20050;-72
2022/02/20 04:47:12;;;;;;;4.88;3.50;;;;;;;;;;6189076;23;20015;-71
2022/02/20 04:49:38;;;;;;;2.65;2.28;;;;;;;;;;6212404;23;20115;-71
2022/02/20 04:52:27;;;;;;;2.70;2.50;;;;;;;;;;6238822;23;20015;-72
2022/02/20 04:54:59;;;;;;;3.47;3.03;;;;;;;;;;6238212;23;20345;-71
2022/02/20 04:57:30;;;;;;;2.30;2.20;;;;;;;;;;6187383;23;20348;-72
2022/02/20 04:59:56;;;;;;;6.22;3.80;;;;;;;;;;6213487;23;20034;-72
2022/02/20 05:02:26;;;;;;;4.90;3.53;;;;;;;;;;6212795;23;20087;-73
2022/02/20 05:04:53;;;;;;;3.63;3.15;;;;;;;;;;6213216;23;20035;-71
2022/02/20 05:07:19;;;;;;;2.22;1.98;;;;;;;;;;6188096;23;20368;-71
2022/02/20 05:09:45;;;;;;;2.22;2.13;;;;;;;;;;6211654;23;20111;-70
2022/02/20 05:12:11;;;;;;;2.70;2.50;;;;;;;;;;6212653;23;20008;-70
2022/02/20 05:14:37;;;;;;;2.90;2.65;;;;;;;;;;6188196;23;20015;-71
2022/02/20 05:17:26;;;;;;;2.33;2.13;;;;;;;;;;6239264;23;20038;-71
2022/02/20 05:19:57;;;;;;;3.90;3.20;;;;;;;;;;6213036;23;20099;-69
2022/02/20 05:22:24;;;;;;;4.38;3.17;;;;;;;;;;6212726;23;20004;-70
2022/02/20 05:24:56;;;;;;;4.00;3.70;;;;;;;;;;6210959;23;20011;-70
2022/02/20 05:27:22;;;;;;;4.72;4.28;;;;;;;;;;6212946;23;20087;-69
2022/02/20 05:29:51;;;;;;;4.05;3.15;;;;;;;;;;6212869;23;20364;-69
2022/02/20 05:32:23;;;;;;;3.95;3.25;;;;;;;;;;6212711;23;20074;-69
2022/02/20 05:34:57;;;;;;;3.65;3.35;;;;;;;;;;6189548;23;20016;-69
2022/02/20 05:37:25;;;;;;;4.10;3.72;;;;;;;;;;6187682;23;20008;-70
2022/02/20 05:39:51;;;;;;;2.40;2.25;;;;;;;;;;6212302;23;20097;-69
2022/02/20 05:42:18;;;;;;;4.22;3.85;;;;;;;;;;6187138;23;20012;-70
2022/02/20 05:44:53;;;;;;;4.43;4.05;;;;;;;;;;6189550;23;20066;-69
2022/02/20 05:47:19;;;;;;;4.20;3.90;;;;;;;;;;6186383;23;20445;-70
2022/02/20 05:49:48;;;;;;;3.47;3.08;;;;;;;;;;6212630;23;20026;-70
2022/02/20 05:52:15;;;;;;;5.30;3.88;;;;;;;;;;6187260;23;20016;-70
2022/02/20 05:54:44;;;;;;;3.90;3.60;;;;;;;;;;6212726;23;20023;-69
2022/02/20 05:57:11;;;;;;;3.75;3.20;;;;;;;;;;6162909;23;20098;-69
2022/02/20 05:59:44;;;;;;;6.13;4.05;;;;;;;;;;6189187;23;20016;-69
2022/02/20 06:02:11;;;;;;;5.10;3.10;;;;;;;;;;6212534;23;20012;-70
2022/02/20 06:04:37;;;;;;;3.38;2.55;;;;;;;;;;6187990;23;20571;-69
2022/02/20 06:07:22;;;;;;;3.10;2.90;;;;;;;;;;6239283;23;20015;-71
2022/02/20 06:10:14;;;;;;;3.35;2.05;;;;;;;;;;6213963;23;20767;-71
2022/02/20 06:13:03;;;;;;;3.92;2.88;;;;;;;;;;6225187;23;20012;-70
2022/02/20 06:15:48;;;;;;;3.58;3.28;;;;;;;;;;6216129;23;20067;-70
2022/02/20 06:18:45;;;;;;;4.53;2.85;;;;;;;;;;6186184;23;20035;-70
2022/02/20 06:21:46;;;;;;;9.13;5.15;;;;;;;;;;6146118;23;20009;-70
2022/02/20 06:24:27;;;;;;;5.28;4.38;;;;;;;;;;6204440;23;20035;-71
2022/02/20 06:27:15;;;;;;;4.88;3.58;;;;;;;;;;6211296;23;20016;-72
2022/02/20 06:29:43;;;;;;;4.43;3.05;;;;;;;;;;6212345;23;20024;-71
2022/02/20 06:32:09;;;;;;;3.25;3.05;;;;;;;;;;6187957;23;20069;-70
2022/02/20 06:34:35;;;;;;;2.67;2.53;;;;;;;;;;6239315;23;20012;-70
2022/02/20 06:37:01;;;;;;;2.70;2.53;;;;;;;;;;6212523;23;20019;-70
2022/02/20 06:39:32;;;;;;;3.88;3.60;;;;;;;;;;6187422;23;20016;-71
2022/02/20 06:41:58;;;;;;;3.03;2.83;;;;;;;;;;6186154;23;20059;-71
2022/02/20 06:44:24;;;;;;;3.80;3.35;;;;;;;;;;6212689;23;20012;-71
2022/02/20 06:46:56;;;;;;;2.10;1.85;;;;;;;;;;6238522;23;20016;-71
2022/02/20 06:49:31;;;;;;;1.92;1.83;;;;;;;;;;6212323;23;20113;-71
2022/02/20 06:52:16;;;;;;;1.75;1.65;;;;;;;;;;6238958;23;20356;-70
2022/02/20 06:55:12;;;;;;;1.90;1.80;;;;;;;;;;6223029;23;20432;-71
2022/02/20 06:57:58;;;;;;;1.77;1.67;;;;;;;;;;6190797;23;20012;-71
2022/02/20 07:00:24;;;;;;;2.22;2.13;;;;;;;;;;6239382;23;20023;-72
2022/02/20 07:02:50;;;;;;;2.95;2.08;;;;;;;;;;6213076;23;20087;-71
2022/02/20 07:05:16;;;;;;;1.92;1.83;;;;;;;;;;6239047;23;20043;-71
2022/02/20 07:07:42;;;;;;;1.92;1.83;;;;;;;;;;6238267;23;20479;-71
2022/02/20 07:10:09;;;;;;;2.00;1.90;;;;;;;;;;6188070;23;20024;-71
2022/02/20 07:12:35;;;;;;;1.98;1.88;;;;;;;;;;6212571;23;20058;-71
2022/02/20 07:15:01;;;;;;;2.15;2.05;;;;;;;;;;6239364;23;20102;-71
2022/02/20 07:17:27;;;;;;;1.80;1.75;;;;;;;;;;6237430;23;20483;-71
2022/02/20 07:19:53;;;;;;;2.35;2.25;;;;;;;;;;6212456;23;20016;-70
2022/02/20 07:22:19;;;;;;;1.42;1.42;;;;;;;;;;6238656;23;20031;-71
2022/02/20 07:24:45;;;;;;;2.85;2.42;;;;;;;;;;6238492;23;20371;-70
2022/02/20 07:27:10;;;;;;;2.58;1.83;;;;;;;;;;6238132;23;20008;-72
2022/02/20 07:29:36;;;;;;;1.92;1.83;;;;;;;;;;6236803;23;20031;-71
2022/02/20 07:32:03;;;;;;;2.60;2.42;;;;;;;;;;6211150;23;20089;-71
2022/02/20 07:34:28;;;;;;;4.78;1.70;;;;;;;;;;6212387;23;20425;-71
2022/02/20 07:36:55;;;;;;;3.78;2.70;;;;;;;;;;6240371;23;20145;-70
2022/02/20 07:39:21;;;;;;;1.83;1.80;;;;;;;;;;6188799;23;20016;-70
2022/02/20 07:41:47;;;;;;;2.10;1.98;;;;;;;;;;6212963;23;20019;-71
2022/02/20 07:44:13;;;;;;;2.00;1.95;;;;;;;;;;6238251;23;20008;-71
2022/02/20 07:46:39;;;;;;;2.30;2.20;;;;;;;;;;6237691;23;20043;-71
2022/02/20 07:49:05;;;;;;;2.65;2.45;;;;;;;;;;6238047;23;20012;-71
2022/02/20 07:51:32;;;;;;;4.03;2.10;;;;;;;;;;6211431;23;20047;-71
2022/02/20 07:53:57;;;;;;;1.90;1.80;;;;;;;;;;6237055;23;20008;-70
2022/02/20 07:56:23;;;;;;;1.90;1.77;;;;;;;;;;6238318;23;20423;-70
2022/02/20 07:58:49;;;;;;;1.48;1.48;;;;;;;;;;6211207;23;20111;-70
2022/02/20 08:01:15;;;;;;;1.80;1.70;;;;;;;;;;6239656;23;20098;-70
2022/02/20 08:03:42;;;;;;;1.65;1.65;;;;;;;;;;6240357;23;20046;-70
2022/02/20 08:06:08;;;;;;;1.52;1.52;;;;;;;;;;6213859;23;20012;-70
2022/02/20 08:08:34;;;;;;;2.03;1.92;;;;;;;;;;6240556;23;20012;-69
2022/02/20 08:11:00;;;;;;;2.28;2.17;;;;;;;;;;6240938;23;20020;-70
2022/02/20 08:13:26;;;;;;;2.58;2.28;;;;;;;;;;6240467;23;20107;-69
2022/02/20 08:15:52;;;;;;;2.00;1.90;;;;;;;;;;6213865;23;20019;-70
2022/02/20 08:18:18;;;;;;;4.13;2.50;;;;;;;;;;6213553;23;20008;-70
2022/02/20 08:20:44;;;;;;;3.20;2.50;;;;;;;;;;6214352;23;20019;-69
2022/02/20 08:23:11;;;;;;;1.77;1.67;;;;;;;;;;6214209;23;20420;-69
2022/02/20 08:25:39;;;;;;;4.18;2.08;;;;;;;;;;6240310;23;20077;-70
2022/02/20 08:28:05;;;;;;;1.75;1.65;;;;;;;;;;6240149;22;20012;-69
2022/02/20 08:30:34;;;;;;;2.00;1.90;;;;;;;;;;6188788;23;20024;-69
2022/02/20 08:32:59;;;;;;;1.63;1.63;;;;;;;;;;6237748;23;20015;-70
2022/02/20 08:35:25;;;;;;;1.58;1.58;;;;;;;;;;6240649;23;20022;-70
2022/02/20 08:37:51;;;;;;;2.08;1.98;;;;;;;;;;6240031;23;20012;-69
2022/02/20 08:40:17;;;;;;;1.80;1.70;;;;;;;;;;6240397;23;20018;-69
2022/02/20 08:42:44;;;;;;;1.65;1.65;;;;;;;;;;6240255;23;20400;-69
2022/02/20 08:45:10;;;;;;;2.20;1.63;;;;;;;;;;6212246;23;20453;-70
2022/02/20 08:47:36;;;;;;;1.40;1.40;;;;;;;;;;6211884;23;20027;-69
2022/02/20 08:50:02;;;;;;;1.48;1.38;;;;;;;;;;6240509;23;20479;-70
2022/02/20 08:52:29;;;;;;;1.30;1.30;;;;;;;;;;6240090;23;20012;-70
2022/02/20 08:54:55;;;;;;;2.10;2.00;;;;;;;;;;6240539;23;20020;-70
2022/02/20 08:57:21;;;;;;;3.90;1.55;;;;;;;;;;6213400;23;20039;-70
2022/02/20 08:59:49;;;;;;;1.45;1.45;;;;;;;;;;6213417;23;20020;-69
2022/02/20 09:02:15;;;;;;;1.35;1.30;;;;;;;;;;6213588;23;20016;-69
2022/02/20 09:04:41;;;;;;;1.40;1.30;;;;;;;;;;6213795;23;20115;-69
2022/02/20 09:07:07;;;;;;;1.17;1.17;;;;;;;;;;6240104;23;20011;-69
2022/02/20 09:09:33;;;;;;;2.65;1.60;;;;;;;;;;6213186;23;20364;-70
2022/02/20 09:11:59;;;;;;;1.27;1.27;;;;;;;;;;6239344;23;20023;-69
2022/02/20 09:14:24;;;;;;;1.45;1.38;;;;;;;;;;6238784;23;20023;-70
2022/02/20 09:16:50;;;;;;;1.00;1.00;;;;;;;;;;6188059;23;20035;-71
2022/02/20 09:19:16;;;;;;;1.60;1.58;;;;;;;;;;6214381;23;20556;-71
2022/02/20 09:21:45;;;;;;;1.50;1.40;;;;;;;;;;6166102;23;20004;-68
2022/02/20 09:24:16;;;;;;;1.83;1.73;;;;;;;;;;6213051;23;20038;-72
2022/02/20 09:26:42;;;;;;;1.65;1.65;;;;;;;;;;6188044;23;20008;-71
2022/02/20 09:29:08;;;;;;;1.77;1.67;;;;;;;;;;6239193;23;20016;-70
2022/02/20 09:31:34;;;;;;;4.85;1.40;;;;;;;;;;6238862;23;20039;-70
2022/02/20 09:34:00;;;;;;;1.90;1.80;;;;;;;;;;6239751;23;20088;-70
2022/02/20 09:36:27;;;;;;;1.92;1.83;;;;;;;;;;6239601;23;20440;-71
2022/02/20 09:38:56;;;;;;;3.33;1.75;;;;;;;;;;6238256;23;20012;-70
2022/02/20 09:41:26;;;;;;;1.60;1.60;;;;;;;;;;6212687;23;20016;-70
2022/02/20 09:43:53;;;;;;;1.63;1.63;;;;;;;;;;6239347;23;20038;-69
2022/02/20 09:46:19;;;;;;;1.55;1.45;;;;;;;;;;6237832;23;20069;-70
2022/02/20 09:48:45;;;;;;;1.58;1.50;;;;;;;;;;6239731;23;20090;-70
2022/02/20 09:51:11;;;;;;;1.58;1.48;;;;;;;;;;6188244;23;20020;-70
2022/02/20 09:53:37;;;;;;;2.30;1.63;;;;;;;;;;6238620;23;20018;-70
2022/02/20 09:56:03;;;;;;;1.45;1.45;;;;;;;;;;6188012;23;20012;-70
2022/02/20 09:58:29;;;;;;;1.55;1.48;;;;;;;;;;6239151;23;20026;-70
2022/02/20 10:00:56;;;;;;;1.30;1.30;;;;;;;;;;6239072;23;20012;-71
2022/02/20 10:03:32;;;;;;;1.75;1.70;;;;;;;;;;6212356;23;20012;-70
2022/02/20 10:06:01;;;;;;;1.58;1.58;;;;;;;;;;6239629;23;20016;-71
2022/02/20 10:08:35;;;;;;;2.00;1.90;;;;;;;;;;6212762;23;20016;-71
2022/02/20 10:11:11;;;;;;;1.60;1.60;;;;;;;;;;6238780;23;20460;-71
2022/02/20 10:13:37;;;;;;;1.75;1.70;;;;;;;;;;6238111;23;20008;-72
2022/02/20 10:16:15;;;;;;;2.10;2.00;;;;;;;;;;6237181;23;20012;-72
2022/02/20 10:19:03;;;;;;;1.45;1.45;;;;;;;;;;6226519;23;20012;-72
2022/02/20 10:21:49;;;;;;;1.75;1.70;;;;;;;;;;6212365;23;20020;-71
2022/02/20 10:24:34;;;;;;;1.58;1.58;;;;;;;;;;6238998;23;20057;-73
2022/02/20 10:27:19;;;;;;;1.80;1.70;;;;;;;;;;6216042;23;20075;-72
2022/02/20 10:30:37;;;;;;;2.30;1.90;;;;;;;;;;6232341;23;20036;-72
2022/02/20 10:33:10;;;;;;;1.95;1.85;;;;;;;;;;6205391;23;20020;-73
2022/02/20 10:35:36;;;;;;;2.05;1.95;;;;;;;;;;6213174;23;20017;-73
2022/02/20 10:38:07;;;;;;;1.45;1.45;;;;;;;;;;6238752;23;20528;-72
2022/02/20 10:40:33;;;;;;;1.65;1.60;;;;;;;;;;6238744;23;20004;-71
2022/02/20 10:43:00;;;;;;;1.40;1.40;;;;;;;;;;6239319;23;20016;-72
2022/02/20 10:45:27;;;;;;;1.88;1.70;;;;;;;;;;6212576;23;20469;-72
2022/02/20 10:47:55;;;;;;;1.95;1.85;;;;;;;;;;6214449;23;20075;-72
2022/02/20 10:50:21;;;;;;;1.58;1.58;;;;;;;;;;6241282;23;20031;-72
2022/02/20 10:53:07;;;;;;;1.65;1.65;;;;;;;;;;6241185;23;20012;-73
2022/02/20 10:55:40;;;;;;;1.80;1.77;;;;;;;;;;6241526;23;20023;-71
2022/02/20 10:58:40;;;;;;;1.90;1.80;;;;;;;;;;6214190;23;20404;-72
2022/02/20 11:01:06;;;;;;;1.80;1.70;;;;;;;;;;6175243;23;20098;-73
2022/02/20 11:03:33;;;;;;;2.17;2.08;;;;;;;;;;6214732;23;20012;-72
2022/02/20 11:05:59;;;;;;;1.80;1.70;;;;;;;;;;6189937;23;20016;-73
2022/02/20 11:08:27;;;;;;;1.70;1.60;;;;;;;;;;6242656;23;20012;-72
2022/02/20 11:10:53;;;;;;;1.65;1.58;;;;;;;;;;6214756;23;20110;-73
2022/02/20 11:13:19;;;;;;;1.65;1.55;;;;;;;;;;6214279;23;20034;-73
2022/02/20 11:15:48;;;;;;;1.52;1.42;;;;;;;;;;6164505;23;20012;-73
2022/02/20 11:18:16;;;;;;;1.80;1.70;;;;;;;;;;6241262;23;20012;-73
2022/02/20 11:20:43;;;;;;;1.73;1.70;;;;;;;;;;6241222;23;20012;-73
2022/02/20 11:23:09;;;;;;;1.55;1.55;;;;;;;;;;6241052;23;20036;-72
2022/02/20 11:25:36;;;;;;;1.80;1.70;;;;;;;;;;6213818;23;20097;-73
2022/02/20 11:28:02;;;;;;;1.38;1.38;;;;;;;;;;6240819;23;20019;-72
2022/02/20 11:30:29;;;;;;;1.35;1.35;;;;;;;;;;6239615;23;20103;-73
2022/02/20 11:32:55;;;;;;;1.35;1.30;;;;;;;;;;6213248;23;20042;-73
2022/02/20 11:35:21;;;;;;;2.78;1.50;;;;;;;;;;6213987;23;20012;-73
2022/02/20 11:37:50;;;;;;;1.67;1.58;;;;;;;;;;6214284;23;20103;-73
2022/02/20 11:40:17;;;;;;;1.42;1.35;;;;;;;;;;6239907;23;20361;-73
2022/02/20 11:42:58;;;;;;;1.60;1.50;;;;;;;;;;6240848;23;20008;-73
2022/02/20 11:45:24;;;;;;;1.42;1.40;;;;;;;;;;6214056;23;20016;-74
2022/02/20 11:47:51;;;;;;;1.60;1.50;;;;;;;;;;6213320;23;20349;-72
2022/02/20 11:50:17;;;;;;;1.20;1.20;;;;;;;;;;6188930;23;20326;-73
2022/02/20 11:52:50;;;;;;;2.03;1.92;;;;;;;;;;6241177;23;20012;-72
2022/02/20 11:55:16;;;;;;;1.30;1.30;;;;;;;;;;6214305;23;20012;-75
2022/02/20 11:57:44;;;;;;;1.20;1.20;;;;;;;;;;6213083;23;20016;-73
2022/02/20 12:00:18;;;;;;;1.25;1.25;;;;;;;;;;6214119;23;20062;-72
2022/02/20 12:03:21;;;;;;;1.42;1.42;;;;;;;;;;6240739;23;20016;-71
2022/02/20 12:06:07;;;;;;;1.50;1.40;;;;;;;;;;6240803;23;20030;-74
2022/02/20 12:08:34;;;;;;;1.27;1.27;;;;;;;;;;6219137;23;20172;-72
2022/02/20 12:11:25;;;;;;;1.90;1.80;;;;;;;;;;6214119;23;20104;-71
2022/02/20 12:13:52;;;;;;;1.20;1.20;;;;;;;;;;6189066;23;20441;-72
2022/02/20 12:16:18;;;;;;;1.40;1.40;;;;;;;;;;6213740;23;20008;-71
2022/02/20 12:19:04;;;;;;;1.13;1.13;;;;;;;;;;6213717;23;20114;-71
2022/02/20 12:21:30;;;;;;;1.88;1.73;;;;;;;;;;6239130;23;20396;-71
2022/02/20 12:23:57;;;;;;;2.00;1.90;;;;;;;;;;6188278;23;20087;-71
2022/02/20 12:26:44;;;;;;;1.70;1.63;;;;;;;;;;6213325;23;20016;-71
2022/02/20 12:29:14;;;;;;;2.85;2.50;;;;;;;;;;6189330;23;20033;-71
2022/02/20 12:31:59;;;;;;;1.13;1.13;;;;;;;;;;6240009;23;20047;-71
2022/02/20 12:34:55;;;;;;;2.40;1.40;;;;;;;;;;6240492;23;20008;-70
2022/02/20 12:37:24;;;;;;;1.20;1.20;;;;;;;;;;6209849;23;20011;-71
2022/02/20 12:39:54;;;;;;;1.40;1.40;;;;;;;;;;6211501;23;20023;-70
2022/02/20 12:42:20;;;;;;;1.30;1.30;;;;;;;;;;6240029;23;20518;-72
2022/02/20 12:44:49;;;;;;;1.50;1.45;;;;;;;;;;6239987;23;20618;-71
2022/02/20 12:47:15;;;;;;;1.23;1.23;;;;;;;;;;6238292;23;20091;-71
2022/02/20 12:49:42;;;;;;;1.92;1.70;;;;;;;;;;6238910;23;20020;-71
2022/02/20 12:52:09;;;;;;;2.05;1.92;;;;;;;;;;6239911;23;20012;-72
2022/02/20 12:54:35;;;;;;;1.50;1.50;;;;;;;;;;6210725;23;20008;-72
2022/02/20 12:57:05;;;;;;;1.45;1.45;;;;;;;;;;6240157;23;20008;-71
2022/02/20 12:59:31;;;;;;;1.33;1.33;;;;;;;;;;6239861;23;20399;-71
2022/02/20 13:02:01;;;;;;;1.40;1.40;;;;;;;;;;6212474;23;20020;-70
2022/02/20 13:04:28;;;;;;;1.40;1.40;;;;;;;;;;6239950;23;20070;-71
2022/02/20 13:06:57;;;;;;;1.52;1.52;;;;;;;;;;6213571;23;20012;-71
2022/02/20 13:09:23;;;;;;;1.40;1.40;;;;;;;;;;6240015;23;20018;-71
2022/02/20 13:11:49;;;;;;;1.25;1.25;;;;;;;;;;6213447;23;20019;-71
2022/02/20 13:14:15;;;;;;;1.38;1.38;;;;;;;;;;6188555;23;20074;-71
2022/02/20 13:16:50;;;;;;;1.10;1.10;;;;;;;;;;6239844;23;20016;-71
2022/02/20 13:19:16;;;;;;;1.20;1.20;;;;;;;;;;6187776;23;20012;-72
2022/02/20 13:21:42;;;;;;;1.50;1.40;;;;;;;;;;6239856;23;20021;-72
2022/02/20 13:24:08;;;;;;;1.30;1.30;;;;;;;;;;6187652;23;20097;-72
2022/02/20 13:26:34;;;;;;;1.58;1.20;;;;;;;;;;6187563;23;20020;-71
2022/02/20 13:29:01;;;;;;;1.20;1.20;;;;;;;;;;6213242;23;20008;-71
2022/02/20 13:31:35;;;;;;;0.95;0.95;;;;;;;;;;6209575;23;20047;-72
2022/02/20 13:34:01;;;;;;;1.20;1.20;;;;;;;;;;6209572;23;20069;-72
2022/02/20 13:36:28;;;;;;;1.80;1.70;;;;;;;;;;6158196;23;20012;-72
2022/02/20 13:39:08;;;;;;;1.70;1.60;;;;;;;;;;6207597;23;20019;-72
2022/02/20 13:41:37;;;;;;;1.50;1.40;;;;;;;;;;6182566;23;20047;-71
2022/02/20 13:44:03;;;;;;;1.60;1.60;;;;;;;;;;6210045;23;20013;-71
2022/02/20 13:46:37;;;;;;;2.08;1.98;;;;;;;;;;6181706;23;20023;-72
2022/02/20 13:49:04;;;;;;;1.40;1.30;;;;;;;;;;6209641;23;20472;-71
2022/02/20 13:51:30;;;;;;;1.65;1.63;;;;;;;;;;6158002;23;20035;-71
2022/02/20 13:54:04;;;;;;;1.38;1.38;;;;;;;;;;6209189;23;20012;-70
2022/02/20 13:56:36;;;;;;;1.33;1.33;;;;;;;;;;6182382;23;20103;-71
2022/02/20 13:59:02;;;;;;;1.70;1.60;;;;;;;;;;6209414;23;20399;-71
2022/02/20 14:01:38;;;;;;;2.30;2.10;;;;;;;;;;6209212;23;20476;-71
2022/02/20 14:04:04;;;;;;;2.17;2.03;;;;;;;;;;6209648;23;20128;-71
2022/02/20 14:06:30;;;;;;;1.83;1.73;;;;;;;;;;6157459;23;20063;-71
2022/02/20 14:08:56;;;;;;;1.35;1.35;;;;;;;;;;6182741;23;20017;-70
2022/02/20 14:11:31;;;;;;;1.45;1.45;;;;;;;;;;6183496;23;20628;-70
2022/02/20 14:13:57;;;;;;;1.23;1.23;;;;;;;;;;6158673;23;20028;-70
2022/02/20 14:16:23;;;;;;;1.27;1.25;;;;;;;;;;6210267;23;20016;-70
2022/02/20 14:18:49;;;;;;;2.08;1.40;;;;;;;;;;6184089;23;20357;-70
2022/02/20 14:21:21;;;;;;;1.42;1.42;;;;;;;;;;6184056;23;20453;-70
2022/02/20 14:23:48;;;;;;;2.00;1.90;;;;;;;;;;6184263;23;20008;-70
2022/02/20 14:26:14;;;;;;;1.70;1.60;;;;;;;;;;6183240;23;20012;-70
2022/02/20 14:28:56;;;;;;;2.72;1.55;;;;;;;;;;6183089;23;20022;-70
2022/02/20 14:31:26;;;;;;;2.20;2.00;;;;;;;;;;6238908;23;20113;-70
2022/02/20 14:33:53;;;;;;;1.40;1.40;;;;;;;;;;6239455;23;20016;-70
2022/02/20 14:36:25;;;;;;;1.55;1.45;;;;;;;;;;6188163;23;20008;-71
2022/02/20 14:38:53;;;;;;;2.92;1.10;;;;;;;;;;6238817;23;20050;-70
2022/02/20 14:41:19;;;;;;;1.50;1.40;;;;;;;;;;6240152;23;20015;-70
2022/02/20 14:43:45;;;;;;;1.48;1.00;;;;;;;;;;6163838;23;20024;-70
2022/02/20 14:46:11;;;;;;;1.40;1.40;;;;;;;;;;6187633;23;20644;-70
2022/02/20 14:48:38;;;;;;;1.40;1.40;;;;;;;;;;6239479;23;20061;-70
2022/02/20 14:51:06;;;;;;;1.23;1.23;;;;;;;;;;6239642;23;20027;-70
2022/02/20 14:53:32;;;;;;;1.30;1.30;;;;;;;;;;6188644;23;20012;-71
2022/02/20 14:55:59;;;;;;;1.38;1.27;;;;;;;;;;6187935;23;20102;-70
2022/02/20 14:58:25;;;;;;;1.27;1.27;;;;;;;;;;6239792;23;20004;-71